Impacts TAF Board INFO
FOR SITUATIONAL AWARENESS. NOT TO BE USED FOR FLIGHT PLANNING PURPOSES.
IDs:

KIAH - Houston/Bush Intl, TX, US

Issued at 1141 UTC 19 Jan 2018
Updated at 1319 UTC 19 Jan 2018
Potential Impact None Slight Moderate High
Time<<20/02Z 20/03Z 20/04Z 20/05Z 20/06Z 20/07Z 20/08Z 20/09Z 20/10Z 20/11Z 20/12Z 20/13Z 20/14Z>>
Type PRVL PRVL PRVL PRVL PRVL PRVL PRVL PRVL PRVL PRVL PRVL PRVL PRVL
VIS >6 >6 >6 >6 >6 >6 >6 >6 >6 >6 >6 >6 >6
CIG 15 9 9 9 9 9 9 9 9 9 9 9 9
Cover OVC OVC OVC OVC OVC OVC OVC OVC OVC OVC OVC OVC OVC
FltCat MVFR IFR IFR IFR IFR IFR IFR IFR IFR IFR IFR IFR IFR
WX -- -- -- -- -- -- -- -- -- -- -- -- --
WDir 110 120 120 120 120 120 120 120 120 120 120 120 120
WSpd 7 8 8 8 8 8 8 8 8 8 8 8 8
WGst -- -- -- -- -- -- -- -- -- -- -- -- --

Raw TAF
KIAH 191141Z 1912/2018 03004KT P6SM BKN060 BKN080 OVC120
  FM191400 07005KT P6SM VCSH OVC025
  FM191900 13010KT P6SM OVC035
  FM200000 11007KT P6SM OVC015
  FM200300 12008KT P6SM OVC009
  FM201500 15009KT 6SM BR OVC015


METAR Board
Radar Display
Forecast Discussion

FOR SITUATIONAL AWARENESS. NOT TO BE USED FOR FLIGHT PLANNING PURPOSES.